SFO weather

San Francisco International Airport
San Francisco, California, United States

Public forecast

Using degrees Fahrenheit for public forecast. Weather courtesy of forecast.io.

Current aviation weather report (METAR) for San Francisco International Airport

Retrieved 2019/10/23 00:56 UTC (59 minutes ago):

KSFO 230056Z 28013KT 10SM FEW200 26/06 A3004 RMK AO2 SLP173 T02560056

Aviation forecast (TAF) for San Francisco International Airport

Retrieved 2019-10-23 00:27 UTC (1 hour ago):

TAF KSFO 222323Z 2300/2406 29014KT P6SM SKC FM230400 29005KT P6SM SKC FM231600 03005KT P6SM SKC FM232200 29013KT P6SM SKC FM240300 30008KT P6SM SKC